Aviation Digital Data Service (ADDS)

Output produced by METARs form (1049 UTC 26 September 2017)
found at http://aviationweather.gov/adds/metars/
 
METAR text: KRNT 260953Z AUTO 00000KT 10SM CLR 13/13 A3015 RMK AO2 SLP213 T01330128
Conditions at: KRNT (RENTON , WA, US) observed 0953 UTC 26 September 2017
Temperature: 13.3°C (56°F)
Dewpoint: 12.8°C (55°F) [RH = 97%]
Pressure (altimeter): 30.15 inches Hg (1021.1 mb)
[Sea-level pressure: 1021.3 mb]
Winds: calm
Visibility: 10 or more miles (16+ km)
Ceiling: at least 12,000 feet AGL
Clouds: sky clear below 12,000 feet AGL
Weather: automated observation with no human augmentation;
there may or may not be significant weather present at this time

METAR text: KRNT 260853Z AUTO 19003KT 10SM CLR 14/13 A3014 RMK AO2 SLP211 T01390128 53007
Conditions at: KRNT (RENTON , WA, US) observed 0853 UTC 26 September 2017
Temperature: 13.9°C (57°F)
Dewpoint: 12.8°C (55°F) [RH = 93%]
Pressure (altimeter): 30.14 inches Hg (1020.7 mb)
[Sea-level pressure: 1021.1 mb]
Winds: from the S (190 degrees) at 3 MPH (3 knots; 1.6 m/s)
Visibility: 10 or more miles (16+ km)
Ceiling: at least 12,000 feet AGL
Clouds: sky clear below 12,000 feet AGL
Weather: automated observation with no human augmentation;
there may or may not be significant weather present at this time